createdAt,value
2022-08-22T00:00:13.646Z,22.80
2022-08-22T00:02:53.348Z,24.50
2022-08-22T00:02:53.437Z,24.50
2022-08-22T00:02:53.534Z,24.50
2022-08-22T00:03:10.470Z,24.50
2022-08-22T00:03:10.555Z,24.40
2022-08-22T00:03:10.556Z,23.40
2022-08-22T00:06:07.182Z,22.20
2022-08-22T00:09:07.803Z,22.50
2022-08-22T00:11:50.985Z,22.60
2022-08-22T00:14:25.539Z,22.40
2022-08-22T00:17:00.092Z,22.50
2022-08-22T00:19:53.437Z,22.60
2022-08-22T00:22:22.887Z,22.70
2022-08-22T00:25:25.424Z,22.60
2022-08-22T00:28:01.874Z,22.60
2022-08-22T00:30:32.630Z,22.70
2022-08-22T00:33:03.329Z,22.60
2022-08-22T00:35:40.572Z,22.70
2022-08-22T00:38:26.944Z,22.70
2022-08-22T00:40:59.739Z,22.70
2022-08-22T00:44:00.777Z,22.70
2022-08-22T00:46:56.894Z,22.70
2022-08-22T00:49:59.359Z,22.80
2022-08-22T00:52:41.392Z,22.70
2022-08-22T00:55:37.080Z,22.70
2022-08-22T00:58:25.375Z,22.70
2022-08-22T01:01:01.836Z,22.80
2022-08-22T01:03:50.959Z,22.70
2022-08-22T01:06:37.268Z,22.60
2022-08-22T01:09:28.239Z,22.60
2022-08-22T01:12:00.636Z,22.60
2022-08-22T01:14:45.622Z,22.60
2022-08-22T01:17:50.471Z,22.60
2022-08-22T01:20:49.166Z,22.50
2022-08-22T01:23:24.837Z,22.50
2022-08-22T01:26:31.782Z,22.60
2022-08-22T01:29:28.278Z,22.60
2022-08-22T01:32:00.967Z,22.60
2022-08-22T01:35:09.192Z,22.60
2022-08-22T01:37:58.660Z,22.50
2022-08-22T01:40:47.560Z,22.50
2022-08-22T01:43:59.715Z,22.40
2022-08-22T01:46:40.649Z,22.40
2022-08-22T01:49:34.979Z,22.40
2022-08-22T01:52:44.539Z,22.40
2022-08-22T01:55:24.494Z,22.40
2022-08-22T01:58:03.891Z,22.40
2022-08-22T02:00:49.843Z,22.40
2022-08-22T02:03:25.136Z,22.40
2022-08-22T02:06:03.316Z,22.40
2022-08-22T02:08:57.911Z,22.30
2022-08-22T02:11:38.501Z,22.40
2022-08-22T02:14:37.841Z,22.40
2022-08-22T02:17:19.157Z,22.30
2022-08-22T02:19:57.296Z,22.20
2022-08-22T02:22:56.215Z,22.10
2022-08-22T02:25:32.673Z,22.20
2022-08-22T02:28:13.815Z,22.20
2022-08-22T02:31:00.712Z,22.00
2022-08-22T02:33:45.756Z,22.10
2022-08-22T02:36:34.211Z,22.20
2022-08-22T02:39:18.987Z,22.10
2022-08-22T02:41:55.535Z,22.10
2022-08-22T02:44:30.944Z,21.90
2022-08-22T02:47:35.404Z,22.00
2022-08-22T02:50:12.649Z,22.10
2022-08-22T02:52:48.421Z,22.10
2022-08-22T02:55:21.335Z,22.10
2022-08-22T02:58:08.645Z,22.10
2022-08-22T03:00:52.317Z,22.10
2022-08-22T03:03:29.973Z,22.10
2022-08-22T03:06:09.041Z,21.90
2022-08-22T03:08:42.952Z,21.90
2022-08-22T03:11:32.138Z,22.00
2022-08-22T03:14:02.664Z,21.90
2022-08-22T03:16:38.259Z,21.70
2022-08-22T03:19:18.499Z,21.80
2022-08-22T03:21:51.504Z,21.90
2022-08-22T03:24:38.770Z,21.90
2022-08-22T03:27:32.195Z,22.00
2022-08-22T03:30:10.490Z,22.00
2022-08-22T03:33:19.843Z,21.70
2022-08-22T03:35:46.487Z,21.80
2022-08-22T03:38:25.475Z,21.80
2022-08-22T03:40:54.946Z,21.80
2022-08-22T03:43:48.657Z,21.80
2022-08-22T03:46:55.020Z,21.70
2022-08-22T03:49:59.337Z,21.60
2022-08-22T03:52:29.440Z,21.60
2022-08-22T03:55:24.496Z,21.60
2022-08-22T03:58:27.711Z,21.70
2022-08-22T04:01:14.877Z,21.80
2022-08-22T04:03:56.373Z,21.80
2022-08-22T04:06:50.011Z,21.80
2022-08-22T04:09:35.303Z,21.80
2022-08-22T04:12:39.486Z,21.20
2022-08-22T04:15:34.939Z,21.30
2022-08-22T04:18:40.689Z,21.50
2022-08-22T04:21:23.195Z,21.50
2022-08-22T04:24:04.725Z,21.00
2022-08-22T04:26:43.723Z,21.10
2022-08-22T04:29:33.030Z,21.10
2022-08-22T04:32:14.596Z,21.10
2022-08-22T04:35:02.846Z,21.10
2022-08-22T04:37:52.232Z,21.10
2022-08-22T04:40:29.425Z,20.70
2022-08-22T04:43:03.831Z,21.10
2022-08-22T04:45:39.597Z,21.20
2022-08-22T04:48:16.756Z,21.10
2022-08-22T04:50:49.591Z,20.60
2022-08-22T04:53:50.516Z,20.70
2022-08-22T04:56:43.915Z,21.00
2022-08-22T04:59:18.747Z,20.60
2022-08-22T05:01:58.260Z,20.40
2022-08-22T05:04:48.601Z,20.70
2022-08-22T05:07:17.603Z,21.00
2022-08-22T05:10:00.907Z,21.20
2022-08-22T05:12:43.401Z,21.20
2022-08-22T05:15:26.378Z,21.20
2022-08-22T05:17:59.006Z,21.20
2022-08-22T05:20:28.675Z,21.30
2022-08-22T05:23:01.368Z,21.30
2022-08-22T05:25:36.915Z,21.50
2022-08-22T05:28:18.111Z,21.60
2022-08-22T05:30:48.256Z,20.70
2022-08-22T05:33:29.801Z,20.30
2022-08-22T05:36:08.924Z,20.10
2022-08-22T05:38:58.184Z,19.80
2022-08-22T05:41:28.917Z,19.80
2022-08-22T05:43:56.013Z,19.90
2022-08-22T05:46:42.931Z,19.70
2022-08-22T05:49:53.503Z,19.50
2022-08-22T05:52:26.317Z,19.20
2022-08-22T05:55:16.673Z,19.30
2022-08-22T05:57:48.637Z,19.10
2022-08-22T06:00:22.425Z,19.10
2022-08-22T06:03:30.432Z,19.20
2022-08-22T06:06:02.840Z,19.50
2022-08-22T06:08:49.375Z,19.90
2022-08-22T06:11:25.588Z,20.30
2022-08-22T06:14:25.446Z,20.30
2022-08-22T06:17:07.317Z,20.30
2022-08-22T06:19:39.425Z,20.70
2022-08-22T06:22:07.302Z,20.30
2022-08-22T06:24:37.618Z,19.40
2022-08-22T06:27:12.776Z,19.90
2022-08-22T06:29:49.321Z,20.50
2022-08-22T06:32:44.455Z,20.30
2022-08-22T06:35:22.256Z,20.40
2022-08-22T06:37:50.209Z,20.10
2022-08-22T06:40:18.607Z,19.90
2022-08-22T06:42:51.758Z,19.70
2022-08-22T06:45:31.980Z,19.90
2022-08-22T06:48:05.277Z,19.00
2022-08-22T06:50:38.487Z,19.50
2022-08-22T06:53:19.655Z,19.60
2022-08-22T06:55:56.219Z,19.90
2022-08-22T06:58:37.401Z,19.80
2022-08-22T07:01:12.678Z,20.30
2022-08-22T07:04:07.041Z,20.20
2022-08-22T07:06:38.266Z,20.50
2022-08-22T07:09:06.900Z,20.10
2022-08-22T07:11:41.635Z,20.10
2022-08-22T07:14:11.626Z,19.70
2022-08-22T07:16:59.294Z,20.10
2022-08-22T07:19:28.498Z,19.80
2022-08-22T07:21:57.292Z,20.20
2022-08-22T07:24:31.523Z,20.30
2022-08-22T07:27:19.772Z,19.90
2022-08-22T07:29:51.272Z,20.10
2022-08-22T07:32:33.352Z,20.10
2022-08-22T07:35:09.129Z,20.30
2022-08-22T07:37:45.244Z,20.80
2022-08-22T07:40:30.284Z,20.30
2022-08-22T07:43:04.450Z,20.80
2022-08-22T07:45:43.268Z,21.30
2022-08-22T07:48:25.396Z,21.20
2022-08-22T07:51:08.547Z,21.00
2022-08-22T07:53:45.977Z,21.70
2022-08-22T07:56:22.354Z,21.80
2022-08-22T07:58:56.683Z,21.70
2022-08-22T08:01:25.403Z,21.70
2022-08-22T08:04:06.632Z,20.70
2022-08-22T08:06:34.745Z,21.60
2022-08-22T08:09:02.621Z,21.30
2022-08-22T08:11:35.505Z,21.20
2022-08-22T08:14:07.390Z,21.00
2022-08-22T08:17:06.058Z,21.40
2022-08-22T08:19:40.440Z,21.80
2022-08-22T08:22:09.385Z,22.10
2022-08-22T08:24:42.593Z,22.20
2022-08-22T08:27:34.068Z,22.30
2022-08-22T08:30:19.054Z,22.40
2022-08-22T08:32:54.066Z,22.30
2022-08-22T08:36:03.269Z,22.30
2022-08-22T08:38:35.730Z,22.70
2022-08-22T08:41:29.416Z,22.50
2022-08-22T08:44:14.663Z,22.50
2022-08-22T08:47:11.991Z,22.40
2022-08-22T08:50:03.892Z,21.70
2022-08-22T08:52:52.841Z,22.80
2022-08-22T08:55:35.747Z,22.00
2022-08-22T08:58:35.402Z,22.40
2022-08-22T09:01:29.049Z,22.20
2022-08-22T09:04:17.215Z,22.70
2022-08-22T09:07:19.882Z,22.30
2022-08-22T09:10:14.893Z,22.30
2022-08-22T09:13:14.897Z,23.00
2022-08-22T09:16:04.765Z,22.30
2022-08-22T09:18:59.894Z,22.60
2022-08-22T09:21:57.725Z,23.00
2022-08-22T09:24:58.964Z,22.60
2022-08-22T09:27:51.154Z,22.90
2022-08-22T09:30:27.633Z,22.70
2022-08-22T09:33:12.575Z,23.30
2022-08-22T09:36:00.995Z,23.20
2022-08-22T09:38:55.585Z,22.90
2022-08-22T09:41:47.037Z,22.50
2022-08-22T09:44:53.776Z,22.80
2022-08-22T09:47:44.287Z,22.60
2022-08-22T09:50:20.694Z,22.80
2022-08-22T09:53:17.803Z,23.20
2022-08-22T09:55:52.865Z,23.30
2022-08-22T09:58:49.503Z,23.10
2022-08-22T10:01:18.939Z,23.20
2022-08-22T10:03:45.711Z,23.30
2022-08-22T10:06:42.077Z,23.40
2022-08-22T10:09:46.343Z,23.20
2022-08-22T10:12:19.518Z,23.30
2022-08-22T10:15:22.220Z,23.70
2022-08-22T10:18:18.472Z,23.30
2022-08-22T10:21:05.772Z,23.60
2022-08-22T10:24:11.798Z,23.90
2022-08-22T10:26:52.735Z,23.60
2022-08-22T10:29:51.224Z,23.80
2022-08-22T10:32:37.672Z,24.00
2022-08-22T10:35:34.499Z,23.80
2022-08-22T10:38:12.309Z,23.90
2022-08-22T10:40:53.425Z,23.60
2022-08-22T10:43:40.803Z,23.70
2022-08-22T10:46:14.032Z,23.70
2022-08-22T10:48:45.272Z,23.80
2022-08-22T10:51:22.336Z,23.70
2022-08-22T10:54:00.073Z,23.60
2022-08-22T10:56:30.680Z,24.00
2022-08-22T10:59:16.302Z,24.10
2022-08-22T11:02:05.041Z,24.10
2022-08-22T11:05:03.326Z,24.30
2022-08-22T11:07:56.923Z,24.30
2022-08-22T11:10:55.218Z,24.30
2022-08-22T11:13:33.790Z,24.60
2022-08-22T11:16:25.867Z,24.50
2022-08-22T11:19:15.244Z,24.70
2022-08-22T11:21:46.082Z,24.50
2022-08-22T11:24:34.694Z,24.40
2022-08-22T11:27:14.570Z,24.90
2022-08-22T11:29:53.927Z,24.90
2022-08-22T11:32:43.580Z,24.70
2022-08-22T11:35:26.913Z,24.60
2022-08-22T11:38:03.038Z,24.60
2022-08-22T11:40:58.032Z,24.80
2022-08-22T11:43:58.997Z,24.70
2022-08-22T11:46:35.390Z,24.70
2022-08-22T11:49:27.103Z,24.60
2022-08-22T11:51:57.326Z,25.00
2022-08-22T11:55:09.041Z,24.80
2022-08-22T11:57:44.356Z,24.70
2022-08-22T12:00:26.537Z,24.70
2022-08-22T12:03:23.410Z,24.90
2022-08-22T12:06:19.870Z,25.10
2022-08-22T12:08:50.881Z,25.00
2022-08-22T12:11:49.970Z,25.10
2022-08-22T12:14:26.857Z,24.80
2022-08-22T12:17:28.557Z,24.90
2022-08-22T12:20:17.084Z,24.90
2022-08-22T12:23:49.136Z,24.90
2022-08-22T12:26:32.741Z,24.60
2022-08-22T12:29:33.907Z,24.90
2022-08-22T12:32:28.350Z,25.10
2022-08-22T12:34:59.686Z,25.30
2022-08-22T12:37:53.144Z,25.20
2022-08-22T12:40:31.086Z,25.40
2022-08-22T12:43:21.812Z,25.40
2022-08-22T12:46:13.410Z,25.30
2022-08-22T12:49:05.518Z,25.10
2022-08-22T12:52:03.192Z,25.20
2022-08-22T12:55:03.214Z,25.30
2022-08-22T12:57:41.291Z,25.40
2022-08-22T13:00:22.831Z,25.20
2022-08-22T13:02:53.717Z,25.50
2022-08-22T13:05:25.688Z,25.50
2022-08-22T13:08:01.201Z,25.40
2022-08-22T13:10:52.350Z,25.10
2022-08-22T13:13:37.260Z,24.80
2022-08-22T13:16:15.566Z,25.10
2022-08-22T13:18:55.634Z,25.40
2022-08-22T13:21:40.355Z,25.70
2022-08-22T13:24:16.978Z,25.40
2022-08-22T13:26:56.170Z,25.40
2022-08-22T13:29:27.526Z,25.70
2022-08-22T13:32:07.499Z,25.30
2022-08-22T13:34:44.962Z,25.30
2022-08-22T13:37:16.396Z,25.40
2022-08-22T13:39:49.013Z,25.50
2022-08-22T13:42:30.016Z,25.70
2022-08-22T13:45:02.457Z,25.70
2022-08-22T13:47:34.818Z,25.70
2022-08-22T13:50:11.849Z,25.90
2022-08-22T13:53:00.734Z,25.80
2022-08-22T13:55:44.839Z,25.90
2022-08-22T13:58:35.586Z,25.80
2022-08-22T14:01:07.488Z,25.80
2022-08-22T14:03:49.255Z,25.70
2022-08-22T14:06:38.131Z,25.70
2022-08-22T14:09:31.245Z,25.50
2022-08-22T14:12:13.875Z,25.90
2022-08-22T14:14:46.113Z,25.80
2022-08-22T14:17:23.095Z,25.80
2022-08-22T14:20:10.990Z,25.80
2022-08-22T14:22:40.672Z,25.70
2022-08-22T14:25:17.811Z,25.70
2022-08-22T14:27:54.548Z,25.70
2022-08-22T14:30:26.390Z,25.90
2022-08-22T14:33:01.064Z,25.70
2022-08-22T14:35:37.859Z,25.80
2022-08-22T14:38:30.269Z,25.70
2022-08-22T14:41:10.051Z,25.70
2022-08-22T14:43:46.628Z,25.60
2022-08-22T14:46:21.206Z,25.50
2022-08-22T14:49:26.797Z,25.70
2022-08-22T14:52:09.979Z,25.70
2022-08-22T14:54:38.781Z,25.70
2022-08-22T14:57:20.157Z,25.60
2022-08-22T14:59:51.900Z,25.80
2022-08-22T15:02:31.526Z,26.10
2022-08-22T15:05:01.933Z,26.10
2022-08-22T15:07:36.262Z,26.10
2022-08-22T15:10:31.849Z,26.00
2022-08-22T15:13:04.961Z,26.00
2022-08-22T15:15:53.451Z,25.80
2022-08-22T15:18:28.029Z,25.80
2022-08-22T15:21:21.016Z,25.90
2022-08-22T15:23:54.369Z,25.70
2022-08-22T15:26:51.868Z,25.70
2022-08-22T15:29:27.591Z,25.70
2022-08-22T15:32:00.915Z,25.90
2022-08-22T15:34:38.381Z,26.00
2022-08-22T15:37:17.885Z,26.10
2022-08-22T15:40:27.108Z,25.80
2022-08-22T15:42:57.222Z,25.80
2022-08-22T15:45:37.401Z,25.90
2022-08-22T15:48:11.167Z,25.80
2022-08-22T15:50:58.988Z,25.50
2022-08-22T15:53:43.731Z,25.80
2022-08-22T15:56:13.281Z,25.90
2022-08-22T15:58:48.829Z,25.80
2022-08-22T16:01:24.153Z,25.80
2022-08-22T16:04:03.571Z,26.00
2022-08-22T16:06:50.521Z,26.10
2022-08-22T16:09:42.764Z,25.80
2022-08-22T16:12:24.678Z,25.70
2022-08-22T16:14:53.465Z,25.90
2022-08-22T16:17:28.987Z,25.70
2022-08-22T16:20:07.932Z,25.80
2022-08-22T16:22:56.412Z,25.80
2022-08-22T16:25:44.931Z,25.90
2022-08-22T16:28:57.903Z,25.90
2022-08-22T16:31:34.022Z,25.70
2022-08-22T16:34:18.909Z,25.70
2022-08-22T16:37:09.625Z,25.70
2022-08-22T16:39:43.288Z,25.70
2022-08-22T16:42:12.930Z,25.70
2022-08-22T16:44:46.869Z,25.70
2022-08-22T16:47:41.804Z,25.60
2022-08-22T16:50:34.003Z,25.80
2022-08-22T16:53:00.777Z,25.70
2022-08-22T16:55:30.555Z,25.80
2022-08-22T16:58:09.074Z,25.70
2022-08-22T17:00:45.903Z,25.50
2022-08-22T17:03:50.458Z,25.30
2022-08-22T17:06:32.289Z,25.50
2022-08-22T17:09:04.981Z,25.50
2022-08-22T17:11:43.780Z,25.50
2022-08-22T17:14:28.116Z,25.40
2022-08-22T17:17:21.017Z,25.40
2022-08-22T17:20:25.419Z,25.30
2022-08-22T17:23:08.116Z,25.00
2022-08-22T17:26:04.341Z,25.10
2022-08-22T17:28:48.553Z,25.10
2022-08-22T17:31:27.148Z,25.20
2022-08-22T17:34:02.514Z,25.00
2022-08-22T17:36:44.820Z,25.20
2022-08-22T17:39:55.838Z,25.20
2022-08-22T17:42:36.460Z,25.30
2022-08-22T17:45:37.116Z,25.00
2022-08-22T17:48:13.423Z,25.00
2022-08-22T17:50:46.669Z,25.10
2022-08-22T17:53:45.165Z,25.10
2022-08-22T17:56:16.383Z,25.00
2022-08-22T17:59:00.880Z,24.90
2022-08-22T18:01:44.990Z,24.70
2022-08-22T18:04:21.392Z,24.80
2022-08-22T18:06:58.334Z,24.70
2022-08-22T18:09:37.449Z,24.60
2022-08-22T18:12:34.436Z,24.60
2022-08-22T18:15:33.887Z,24.30
2022-08-22T18:18:13.002Z,24.20
2022-08-22T18:21:00.660Z,24.40
2022-08-22T18:23:39.954Z,24.40
2022-08-22T18:26:20.537Z,24.40
2022-08-22T18:29:10.956Z,24.40
2022-08-22T18:32:00.988Z,24.40
2022-08-22T18:34:42.008Z,24.20
2022-08-22T18:37:36.924Z,24.20
2022-08-22T18:40:20.178Z,24.40
2022-08-22T18:43:04.871Z,24.30
2022-08-22T18:45:46.856Z,24.20
2022-08-22T18:48:54.473Z,24.10
2022-08-22T18:51:30.709Z,24.20
2022-08-22T18:54:13.379Z,24.10
2022-08-22T18:56:59.594Z,24.00
2022-08-22T18:59:53.659Z,24.20
2022-08-22T19:02:40.269Z,24.20
2022-08-22T19:05:27.394Z,24.30
2022-08-22T19:08:03.600Z,24.40
2022-08-22T19:10:48.152Z,24.30
2022-08-22T19:13:24.972Z,24.10
2022-08-22T19:16:06.731Z,24.00
2022-08-22T19:18:40.940Z,24.20
2022-08-22T19:21:41.749Z,24.30
2022-08-22T19:24:34.694Z,24.30
2022-08-22T19:27:07.533Z,24.30
2022-08-22T19:29:34.165Z,23.90
2022-08-22T19:32:11.840Z,23.60
2022-08-22T19:34:46.934Z,23.40
2022-08-22T19:37:32.532Z,23.20
2022-08-22T19:40:11.823Z,23.10
2022-08-22T19:42:42.048Z,23.00
2022-08-22T19:45:27.134Z,23.00
2022-08-22T19:48:14.718Z,22.90
2022-08-22T19:50:43.233Z,22.70
2022-08-22T19:53:24.391Z,22.70
2022-08-22T19:56:19.950Z,23.30
2022-08-22T19:58:51.792Z,23.90
2022-08-22T20:01:33.730Z,24.00
2022-08-22T20:04:09.461Z,24.00
2022-08-22T20:06:59.023Z,24.10
2022-08-22T20:10:09.000Z,24.10
2022-08-22T20:13:05.076Z,24.10
2022-08-22T20:15:36.256Z,24.10
2022-08-22T20:18:46.470Z,24.10
2022-08-22T20:20:58.830Z,24.10
2022-08-22T20:23:30.603Z,24.10
2022-08-22T20:25:58.579Z,24.10
2022-08-22T20:28:45.710Z,24.10
2022-08-22T20:31:20.708Z,24.10
2022-08-22T20:33:52.943Z,24.00
2022-08-22T20:36:28.445Z,24.00
2022-08-22T20:39:01.748Z,24.00
2022-08-22T20:41:39.720Z,23.90
2022-08-22T20:44:37.687Z,23.90
2022-08-22T20:47:13.318Z,24.00
2022-08-22T20:50:00.633Z,23.90
2022-08-22T20:52:51.867Z,23.90
2022-08-22T20:55:31.875Z,23.90
2022-08-22T20:58:04.141Z,24.00
2022-08-22T21:00:42.109Z,23.90
2022-08-22T21:03:13.528Z,23.90
2022-08-22T21:05:45.268Z,23.90
2022-08-22T21:08:19.927Z,23.90
2022-08-22T21:11:19.714Z,23.90
2022-08-22T21:13:47.501Z,23.90
2022-08-22T21:16:32.998Z,23.90
2022-08-22T21:19:04.130Z,23.80
2022-08-22T21:21:34.488Z,23.80
2022-08-22T21:24:06.952Z,23.60
2022-08-22T21:26:39.923Z,23.70
2022-08-22T21:29:22.536Z,23.70
2022-08-22T21:32:27.688Z,23.50
2022-08-22T21:34:54.710Z,23.50
2022-08-22T21:37:38.287Z,23.30
2022-08-22T21:40:15.817Z,23.00
2022-08-22T21:42:57.507Z,23.30
2022-08-22T21:45:32.017Z,23.20
2022-08-22T21:47:59.411Z,23.30
2022-08-22T21:50:37.810Z,23.30
2022-08-22T21:53:10.205Z,23.30
2022-08-22T21:55:43.027Z,23.40
2022-08-22T21:58:35.456Z,23.40
2022-08-22T22:01:24.828Z,23.30
2022-08-22T22:03:52.004Z,23.30
2022-08-22T22:06:18.693Z,23.10
2022-08-22T22:08:45.555Z,23.20
2022-08-22T22:11:15.350Z,23.30
2022-08-22T22:13:42.496Z,23.40
2022-08-22T22:16:12.001Z,23.40
2022-08-22T22:18:39.431Z,23.40
2022-08-22T22:21:06.345Z,23.40
2022-08-22T22:23:33.084Z,23.50
2022-08-22T22:26:02.696Z,23.50
2022-08-22T22:28:37.759Z,23.60
2022-08-22T22:31:05.538Z,23.60
2022-08-22T22:33:37.893Z,23.50
2022-08-22T22:36:17.583Z,23.50
2022-08-22T22:38:44.683Z,23.50
2022-08-22T22:41:11.975Z,23.50
2022-08-22T22:43:38.672Z,23.50
2022-08-22T22:46:06.429Z,23.50
2022-08-22T22:48:33.717Z,23.50
2022-08-22T22:51:08.726Z,23.50
2022-08-22T22:53:40.225Z,23.50
2022-08-22T22:56:13.012Z,23.50
2022-08-22T22:58:40.163Z,23.50
2022-08-22T23:01:09.910Z,23.50
2022-08-22T23:03:36.856Z,23.40
2022-08-22T23:06:03.725Z,23.40
2022-08-22T23:08:30.676Z,23.40
2022-08-22T23:10:58.298Z,23.40
2022-08-22T23:13:24.959Z,23.40
2022-08-22T23:15:51.704Z,23.40
2022-08-22T23:18:18.392Z,23.40
2022-08-22T23:20:47.789Z,23.40
2022-08-22T23:23:15.809Z,23.40
2022-08-22T23:25:42.711Z,23.40
2022-08-22T23:28:09.418Z,23.40
2022-08-22T23:30:36.374Z,23.40
2022-08-22T23:33:03.050Z,23.40
2022-08-22T23:35:29.760Z,23.30
2022-08-22T23:37:56.610Z,23.30
2022-08-22T23:40:23.456Z,23.30
2022-08-22T23:42:50.204Z,23.30
2022-08-22T23:45:17.096Z,23.30
2022-08-22T23:47:43.846Z,23.30
2022-08-22T23:50:10.556Z,23.30
2022-08-22T23:52:37.442Z,23.30
2022-08-22T23:55:04.868Z,23.30
2022-08-22T23:57:33.205Z,23.30
